KHLB/HLB METAR and TAF weather

Enter ICAO airport designator
Station Type Date Time Source
KHLB METAR 2020/01/23 21:15 UTC NOAA

KHLB 232115Z AUTO 11005KT 10SM FEW047 FEW055 BKN065 06/M04 A3008 RMK A01


Station Type Date Time Source
KHLB Decoded METAR 2020/01/23 21:15 UTC NOAA

Station name not available
Jan 23, 2020 - 04:15 PM EST / 2020.01.23 2115 UTC
Wind: from the ESE (110 degrees) at 6 MPH (5 KT):0
Visibility: 10 mile(s):0
Sky conditions: mostly cloudy
Temperature: 42 F (6 C)
Dew Point: 24 F (-4 C)
Relative Humidity: 48%
Pressure (altimeter): 30.08 in. Hg (1018 hPa)
ob: KHLB 232115Z AUTO 11005KT 10SM FEW047 FEW055 BKN065 06/M04 A3008 RMK A01
cycle: 21

Station Type Date Time Source
KHLB TAF UTC NOAA

Error!

Example: see airport list